Time;durP1;ratioP1;P1;durP2;ratioP2;P2;SDS_P1;SDS_P2;PMS_P1;PMS_P2;Temp;Humidity;BMP_temperature;BMP_pressure;BME280_temperature;BME280_humidity;BME280_pressure;Samples;Min_cycle;Max_cycle;Signal;HPM_P1;HPM_P2
2023/04/07 00:00:54;;;;;;;7.60;6.43;;;11.20;99.90;;;;;;5017849;28;20212;-67
2023/04/07 00:03:20;;;;;;;7.63;6.33;;;11.30;99.90;;;;;;5017786;28;20212;-67
2023/04/07 00:05:46;;;;;;;7.23;6.53;;;11.30;99.90;;;;;;5015135;28;20177;-67
2023/04/07 00:08:11;;;;;;;7.57;6.20;;;11.20;99.90;;;;;;5018956;28;22239;-67
2023/04/07 00:10:37;;;;;;;8.00;6.60;;;11.10;99.90;;;;;;5012073;28;20464;-67
2023/04/07 00:13:03;;;;;;;8.33;7.47;;;11.00;99.90;;;;;;5018971;28;20272;-67
2023/04/07 00:15:28;;;;;;;7.27;6.40;;;11.10;99.90;;;;;;5012766;28;20181;-67
2023/04/07 00:17:55;;;;;;;8.10;7.30;;;11.10;99.90;;;;;;5013686;28;20280;-67
2023/04/07 00:20:20;;;;;;;7.70;6.80;;;11.10;99.90;;;;;;5015552;28;20223;-67
2023/04/07 00:22:46;;;;;;;7.50;6.23;;;11.10;99.90;;;;;;5012601;28;20451;-68
2023/04/07 00:25:12;;;;;;;7.70;6.63;;;11.00;99.90;;;;;;5018611;28;20237;-68
2023/04/07 00:27:37;;;;;;;8.70;6.13;;;11.00;99.90;;;;;;5015615;28;20528;-67
2023/04/07 00:30:03;;;;;;;7.57;6.77;;;11.00;99.90;;;;;;5017203;28;20211;-67
2023/04/07 00:32:29;;;;;;;8.87;6.97;;;11.00;99.90;;;;;;5016446;28;20176;-68
2023/04/07 00:34:55;;;;;;;9.67;6.90;;;11.10;99.90;;;;;;5013035;28;20461;-67
2023/04/07 00:37:20;;;;;;;7.40;5.87;;;11.10;99.90;;;;;;5017689;28;20237;-67
2023/04/07 00:39:46;;;;;;;7.83;5.40;;;11.10;99.90;;;;;;5012775;28;20184;-68
2023/04/07 00:42:11;;;;;;;6.80;5.53;;;11.00;99.90;;;;;;5012474;28;20242;-68
2023/04/07 00:44:37;;;;;;;7.17;5.93;;;11.10;99.90;;;;;;5012059;28;20185;-67
2023/04/07 00:47:03;;;;;;;11.53;5.77;;;11.10;99.90;;;;;;5014774;28;20212;-67
2023/04/07 00:49:29;;;;;;;6.40;5.67;;;11.10;99.90;;;;;;5008482;28;20521;-68
2023/04/07 00:51:56;;;;;;;8.20;6.73;;;11.10;99.90;;;;;;5013479;28;20192;-67
2023/04/07 00:54:23;;;;;;;6.80;6.20;;;11.10;99.90;;;;;;5014771;28;20508;-67
2023/04/07 00:56:49;;;;;;;7.43;5.90;;;11.00;99.90;;;;;;5015093;28;20940;-67
2023/04/07 00:59:14;;;;;;;6.70;6.00;;;11.00;99.90;;;;;;5013191;28;21076;-67
2023/04/07 01:01:54;;;;;;;6.40;5.80;;;11.00;99.90;;;;;;5016648;28;20467;-67
2023/04/07 01:04:34;;;;;;;6.97;6.37;;;11.00;99.90;;;;;;5012619;28;20193;-67
2023/04/07 01:07:12;;;;;;;6.33;5.70;;;11.00;99.90;;;;;;5015831;28;20439;-67
2023/04/07 01:09:46;;;;;;;8.30;6.47;;;10.90;99.90;;;;;;5011678;28;20448;-67
2023/04/07 01:12:27;;;;;;;10.80;6.00;;;10.90;99.90;;;;;;5010163;28;20970;-67
2023/04/07 01:15:03;;;;;;;8.03;5.30;;;10.90;99.90;;;;;;5008535;28;20447;-68
2023/04/07 01:17:31;;;;;;;6.30;5.70;;;11.00;99.90;;;;;;5011080;28;20462;-68
2023/04/07 01:20:00;;;;;;;6.87;5.40;;;10.90;99.90;;;;;;5014663;28;20471;-68
2023/04/07 01:22:33;;;;;;;7.10;5.27;;;10.90;99.90;;;;;;5006445;28;20463;-67
2023/04/07 01:25:29;;;;;;;9.80;7.17;;;10.90;99.90;;;;;;5017387;28;20922;-67
2023/04/07 01:28:01;;;;;;;9.57;5.70;;;11.00;99.90;;;;;;5009708;28;20443;-67
2023/04/07 01:30:33;;;;;;;6.53;5.20;;;11.00;99.90;;;;;;5010922;28;20460;-67
2023/04/07 01:33:00;;;;;;;9.53;6.13;;;11.00;99.90;;;;;;5013794;28;20451;-67
2023/04/07 01:35:29;;;;;;;5.73;5.23;;;11.00;99.90;;;;;;5008155;28;20443;-67
2023/04/07 01:37:56;;;;;;;6.03;5.43;;;11.00;99.90;;;;;;5015276;28;20470;-67
2023/04/07 01:40:24;;;;;;;6.27;5.10;;;11.00;99.90;;;;;;5011359;28;20553;-67
2023/04/07 01:42:51;;;;;;;6.20;5.30;;;11.00;99.90;;;;;;5012494;28;20454;-68
2023/04/07 01:45:18;;;;;;;6.33;5.00;;;11.00;99.90;;;;;;5011470;28;20438;-67
2023/04/07 01:47:45;;;;;;;8.40;5.60;;;11.00;99.90;;;;;;5009444;28;20431;-67
2023/04/07 01:50:12;;;;;;;5.70;5.20;;;11.00;99.90;;;;;;5009696;28;20551;-67
2023/04/07 01:52:39;;;;;;;5.80;5.20;;;11.10;99.90;;;;;;5013921;28;20443;-67
2023/04/07 01:55:05;;;;;;;8.30;5.60;;;11.10;99.90;;;;;;5011640;28;20510;-67
2023/04/07 01:57:31;;;;;;;5.87;4.87;;;11.10;99.90;;;;;;5014591;28;21073;-68
2023/04/07 01:59:57;;;;;;;5.63;5.13;;;11.20;99.90;;;;;;5007963;28;20459;-67
2023/04/07 02:02:23;;;;;;;8.23;5.97;;;11.20;99.90;;;;;;5015667;28;20486;-67
2023/04/07 02:04:52;;;;;;;5.90;5.30;;;11.20;99.90;;;;;;5017203;28;20819;-67
2023/04/07 02:07:22;;;;;;;8.97;5.77;;;11.10;99.90;;;;;;5018352;28;20234;-67
2023/04/07 02:09:50;;;;;;;6.10;5.50;;;11.20;99.90;;;;;;5017051;28;20444;-67
2023/04/07 02:12:16;;;;;;;5.67;5.10;;;11.20;99.90;;;;;;5011953;28;20436;-67
2023/04/07 02:14:43;;;;;;;6.60;5.80;;;11.10;99.90;;;;;;5017860;28;20475;-67
2023/04/07 02:17:09;;;;;;;6.87;5.83;;;11.10;99.90;;;;;;5017626;28;20449;-67
2023/04/07 02:19:35;;;;;;;6.10;4.83;;;11.10;99.90;;;;;;5013799;28;20436;-67
2023/04/07 02:22:05;;;;;;;6.57;5.87;;;11.10;99.90;;;;;;5011860;28;20868;-67
2023/04/07 02:24:31;;;;;;;10.80;6.40;;;11.10;99.90;;;;;;5016318;28;20275;-67
2023/04/07 02:26:57;;;;;;;9.80;6.40;;;11.10;99.90;;;;;;5017060;28;20546;-67
2023/04/07 02:29:22;;;;;;;9.10;6.53;;;11.10;99.90;;;;;;5016223;28;20232;-67
2023/04/07 02:31:48;;;;;;;7.93;6.63;;;11.10;99.90;;;;;;5020941;28;20212;-68
2023/04/07 02:34:13;;;;;;;7.40;6.17;;;11.10;99.90;;;;;;5016773;28;20277;-67
2023/04/07 02:36:39;;;;;;;8.23;5.50;;;11.10;99.90;;;;;;5017568;28;20193;-67
2023/04/07 02:39:04;;;;;;;7.10;6.17;;;11.00;99.90;;;;;;5018228;28;20276;-68
2023/04/07 02:41:30;;;;;;;6.87;6.17;;;11.00;99.90;;;;;;5021513;28;20247;-67
2023/04/07 02:43:56;;;;;;;7.50;6.33;;;11.00;99.90;;;;;;5024500;28;20191;-67
2023/04/07 02:46:21;;;;;;;9.00;6.27;;;10.90;99.90;;;;;;5016618;28;20188;-67
2023/04/07 02:48:47;;;;;;;6.80;5.90;;;10.90;99.90;;;;;;5015071;28;20603;-67
2023/04/07 02:51:12;;;;;;;7.50;6.00;;;10.90;99.90;;;;;;5013499;28;20217;-67
2023/04/07 02:53:38;;;;;;;6.33;5.70;;;10.90;99.90;;;;;;5016083;28;20615;-67
2023/04/07 02:56:03;;;;;;;7.80;5.97;;;10.90;99.90;;;;;;5006323;28;20272;-68
2023/04/07 02:58:29;;;;;;;6.50;5.90;;;11.00;99.90;;;;;;5017778;28;20191;-68
2023/04/07 03:00:55;;;;;;;6.50;5.90;;;10.90;99.90;;;;;;5020865;28;20220;-68
2023/04/07 03:03:20;;;;;;;8.27;6.27;;;10.80;99.90;;;;;;5021424;28;20192;-67
2023/04/07 03:05:46;;;;;;;6.70;5.83;;;10.80;99.90;;;;;;5013720;28;20184;-67
2023/04/07 03:08:11;;;;;;;7.73;6.47;;;10.80;99.90;;;;;;5010964;28;20185;-67
2023/04/07 03:10:37;;;;;;;7.60;6.20;;;10.80;99.90;;;;;;5015873;28;20578;-68
2023/04/07 03:13:02;;;;;;;7.03;6.33;;;10.80;99.90;;;;;;5012027;28;20207;-68
2023/04/07 03:15:28;;;;;;;7.43;5.97;;;10.70;99.90;;;;;;5015187;28;20652;-67
2023/04/07 03:17:54;;;;;;;7.37;6.10;;;10.70;99.90;;;;;;5015125;28;20276;-67
2023/04/07 03:20:19;;;;;;;6.57;5.97;;;10.60;99.90;;;;;;5018328;28;20216;-67
2023/04/07 03:22:46;;;;;;;6.23;5.63;;;10.60;99.90;;;;;;5015315;28;20192;-67
2023/04/07 03:25:12;;;;;;;8.23;6.00;;;10.50;99.90;;;;;;5015971;28;20657;-67
2023/04/07 03:27:37;;;;;;;6.90;6.20;;;10.50;99.90;;;;;;5017382;28;20442;-67
2023/04/07 03:30:03;;;;;;;8.10;6.50;;;10.40;99.90;;;;;;5016851;28;20461;-67
2023/04/07 03:32:29;;;;;;;7.37;6.40;;;10.40;99.90;;;;;;5016471;28;20541;-67
2023/04/07 03:34:55;;;;;;;7.60;6.80;;;10.40;99.90;;;;;;5013233;28;20772;-67
2023/04/07 03:37:20;;;;;;;6.20;5.60;;;10.40;99.90;;;;;;5015754;28;20196;-67
2023/04/07 03:39:46;;;;;;;8.87;6.83;;;10.40;99.90;;;;;;5016322;28;20839;-67
2023/04/07 03:42:12;;;;;;;8.70;7.07;;;10.40;99.90;;;;;;5012586;28;20220;-67
2023/04/07 03:44:37;;;;;;;6.90;6.20;;;10.40;99.90;;;;;;5010192;28;20188;-68
2023/04/07 03:47:03;;;;;;;6.77;6.07;;;10.40;99.90;;;;;;5013757;28;20205;-67
2023/04/07 03:49:30;;;;;;;8.50;6.00;;;10.40;99.90;;;;;;5014008;28;20565;-68
2023/04/07 03:51:56;;;;;;;10.53;6.40;;;10.40;99.90;;;;;;5015354;28;20199;-68
2023/04/07 03:54:22;;;;;;;6.80;6.10;;;10.40;99.90;;;;;;5015393;28;20514;-68
2023/04/07 03:56:47;;;;;;;7.90;7.00;;;10.30;99.90;;;;;;5018708;28;20621;-68
2023/04/07 03:59:13;;;;;;;7.40;6.40;;;10.30;99.90;;;;;;5013779;28;20192;-67
2023/04/07 04:01:39;;;;;;;7.90;6.23;;;10.40;99.90;;;;;;5011351;28;20221;-68
2023/04/07 04:04:04;;;;;;;6.73;6.13;;;10.40;99.90;;;;;;5016008;28;20192;-67
2023/04/07 04:06:30;;;;;;;8.37;6.87;;;10.50;99.90;;;;;;5011389;28;20523;-67
2023/04/07 04:08:56;;;;;;;9.07;6.60;;;10.50;99.90;;;;;;5017971;28;20665;-68
2023/04/07 04:11:21;;;;;;;7.40;6.60;;;10.50;99.90;;;;;;5010659;28;20208;-68
2023/04/07 04:13:47;;;;;;;8.67;6.53;;;10.50;99.90;;;;;;5013939;28;20184;-67
2023/04/07 04:16:13;;;;;;;7.23;6.20;;;10.50;99.90;;;;;;5016569;28;20196;-67
2023/04/07 04:18:38;;;;;;;10.20;7.90;;;10.50;99.90;;;;;;5016460;28;20231;-67
2023/04/07 04:21:04;;;;;;;7.60;6.80;;;10.50;99.90;;;;;;5016252;28;20279;-67
2023/04/07 04:23:30;;;;;;;8.17;7.20;;;10.50;99.90;;;;;;5012540;28;20239;-67
2023/04/07 04:25:55;;;;;;;13.17;6.77;;;10.50;99.90;;;;;;5015158;28;20243;-67
2023/04/07 04:28:21;;;;;;;8.53;7.17;;;10.40;99.90;;;;;;5017667;28;20638;-67
2023/04/07 04:30:47;;;;;;;10.27;6.20;;;10.40;99.90;;;;;;5015705;28;20545;-67
2023/04/07 04:33:12;;;;;;;8.47;7.53;;;10.40;99.90;;;;;;5015755;28;20177;-67
2023/04/07 04:35:38;;;;;;;6.80;6.20;;;10.40;99.90;;;;;;5016275;28;20185;-67
2023/04/07 04:38:04;;;;;;;7.70;7.00;;;10.40;99.90;;;;;;5016230;28;20196;-67
2023/04/07 04:40:30;;;;;;;7.50;6.43;;;10.40;99.90;;;;;;5026648;28;20218;-67
2023/04/07 04:42:55;;;;;;;7.60;6.60;;;10.40;99.90;;;;;;5014002;28;20226;-67
2023/04/07 04:45:21;;;;;;;7.80;6.90;;;10.40;99.90;;;;;;5011575;28;20427;-68
2023/04/07 04:47:46;;;;;;;7.07;6.37;;;10.40;99.90;;;;;;5015127;28;20692;-67
2023/04/07 04:50:12;;;;;;;7.90;6.43;;;10.40;99.90;;;;;;5016183;28;20212;-67
2023/04/07 04:52:38;;;;;;;10.27;6.90;;;10.40;99.90;;;;;;5018218;28;20864;-67
2023/04/07 04:55:04;;;;;;;8.13;6.70;;;10.30;99.90;;;;;;5021802;28;20227;-67
2023/04/07 04:57:30;;;;;;;6.80;6.10;;;10.30;99.90;;;;;;5018872;28;20644;-67
2023/04/07 04:59:55;;;;;;;6.93;6.20;;;10.30;99.90;;;;;;5018299;28;20443;-67
2023/04/07 05:02:21;;;;;;;6.67;6.00;;;10.40;99.90;;;;;;5014330;28;20478;-67
2023/04/07 05:04:46;;;;;;;8.27;7.17;;;10.40;99.90;;;;;;5015627;28;20634;-66
2023/04/07 05:07:12;;;;;;;7.77;7.00;;;10.40;99.90;;;;;;5011785;28;20484;-67
2023/04/07 05:09:38;;;;;;;7.80;6.87;;;10.40;99.90;;;;;;5014695;28;20219;-67
2023/04/07 05:12:04;;;;;;;7.90;6.30;;;10.40;99.90;;;;;;5009341;28;20255;-67
2023/04/07 05:14:29;;;;;;;10.37;7.20;;;10.40;99.90;;;;;;5012754;28;20193;-67
2023/04/07 05:16:55;;;;;;;7.17;6.47;;;10.40;99.90;;;;;;5018331;28;20474;-67
2023/04/07 05:19:21;;;;;;;7.70;6.90;;;10.30;99.90;;;;;;5014468;28;20197;-67
2023/04/07 05:21:46;;;;;;;8.10;6.80;;;10.30;99.90;;;;;;5006763;28;20224;-67
2023/04/07 05:24:12;;;;;;;8.10;7.03;;;10.30;99.90;;;;;;5011585;28;20343;-67
2023/04/07 05:26:38;;;;;;;8.73;6.63;;;10.30;99.90;;;;;;5014820;28;20184;-67
2023/04/07 05:29:03;;;;;;;7.50;6.23;;;10.40;99.90;;;;;;5017517;28;20231;-68
2023/04/07 05:31:29;;;;;;;9.17;6.90;;;10.40;99.90;;;;;;5012762;28;20217;-68
2023/04/07 05:33:54;;;;;;;35.67;27.57;;;10.40;99.90;;;;;;5016879;28;20189;-68
2023/04/07 05:36:20;;;;;;;12.30;10.13;;;10.30;99.90;;;;;;5011421;28;20735;-68
2023/04/07 05:38:46;;;;;;;8.47;6.87;;;10.30;99.90;;;;;;5004319;28;20181;-68
2023/04/07 05:41:11;;;;;;;9.57;7.87;;;10.30;99.90;;;;;;5008393;28;20223;-67
2023/04/07 05:43:37;;;;;;;8.40;6.87;;;10.40;99.90;;;;;;5010128;28;20195;-68
2023/04/07 05:46:02;;;;;;;17.20;15.40;;;10.50;99.90;;;;;;5014454;28;20216;-68
2023/04/07 05:48:28;;;;;;;8.70;7.43;;;10.40;99.90;;;;;;5015785;28;20180;-68
2023/04/07 05:50:53;;;;;;;11.50;7.67;;;10.40;99.90;;;;;;5010221;28;20216;-68
2023/04/07 05:53:19;;;;;;;9.80;7.47;;;10.50;99.90;;;;;;5012140;28;20514;-68
2023/04/07 05:55:45;;;;;;;8.50;7.20;;;10.50;99.90;;;;;;5008310;28;20211;-68
2023/04/07 05:58:10;;;;;;;6.70;6.00;;;10.60;99.90;;;;;;5012638;28;20262;-68
2023/04/07 06:00:36;;;;;;;8.87;6.40;;;10.60;99.90;;;;;;5008737;28;20347;-68
2023/04/07 06:03:02;;;;;;;7.50;6.70;;;10.70;99.90;;;;;;5012200;28;20203;-68
2023/04/07 06:05:29;;;;;;;12.67;7.73;;;10.70;99.90;;;;;;5013305;28;20313;-68
2023/04/07 06:07:54;;;;;;;7.60;6.30;;;10.70;99.90;;;;;;5005531;28;20529;-68
2023/04/07 06:10:20;;;;;;;7.17;6.30;;;10.80;99.90;;;;;;5009482;28;20209;-67
2023/04/07 06:12:45;;;;;;;10.93;7.60;;;10.80;99.90;;;;;;5010645;28;20647;-68
2023/04/07 06:15:11;;;;;;;8.20;7.23;;;10.90;99.90;;;;;;5014141;28;20187;-68
2023/04/07 06:17:36;;;;;;;8.73;6.80;;;11.00;99.90;;;;;;5013560;28;20173;-68
2023/04/07 06:20:03;;;;;;;7.10;6.40;;;11.00;99.90;;;;;;5010891;28;20197;-68
2023/04/07 06:22:28;;;;;;;12.20;9.53;;;11.10;99.90;;;;;;5011023;28;20598;-68
2023/04/07 06:24:54;;;;;;;9.03;6.77;;;11.10;99.90;;;;;;5015125;28;20964;-68
2023/04/07 06:27:21;;;;;;;7.10;6.10;;;11.20;99.90;;;;;;5018644;28;20667;-68
2023/04/07 06:29:46;;;;;;;7.97;7.00;;;11.30;99.90;;;;;;5015788;28;20177;-68
2023/04/07 06:32:12;;;;;;;10.20;7.47;;;11.30;99.90;;;;;;5008308;28;20932;-68
2023/04/07 06:34:38;;;;;;;7.73;6.73;;;11.30;99.90;;;;;;5015780;28;20188;-68
2023/04/07 06:37:04;;;;;;;12.23;8.67;;;11.10;99.90;;;;;;5016035;28;20456;-68
2023/04/07 06:39:30;;;;;;;7.57;6.80;;;11.10;99.90;;;;;;5014431;28;20258;-67
2023/04/07 06:41:56;;;;;;;7.07;6.40;;;11.20;99.90;;;;;;5014777;28;20478;-68
2023/04/07 06:44:22;;;;;;;7.50;6.77;;;11.30;99.90;;;;;;5013694;28;20448;-67
2023/04/07 06:46:51;;;;;;;8.87;7.30;;;11.30;99.90;;;;;;5010533;28;20447;-67
2023/04/07 06:49:18;;;;;;;10.33;6.60;;;11.50;99.90;;;;;;5012052;28;20326;-67
2023/04/07 06:51:43;;;;;;;8.93;7.13;;;11.60;99.90;;;;;;5014844;28;20468;-67
2023/04/07 06:54:12;;;;;;;11.10;8.00;;;11.60;99.90;;;;;;5013358;28;20449;-68
2023/04/07 06:56:41;;;;;;;9.03;7.60;;;11.60;99.90;;;;;;5011410;28;20850;-67
2023/04/07 06:59:07;;;;;;;10.63;8.13;;;11.60;99.90;;;;;;5010675;28;20458;-67
2023/04/07 07:01:33;;;;;;;8.70;7.80;;;11.60;99.90;;;;;;5015663;28;20841;-68
2023/04/07 07:04:02;;;;;;;8.10;6.60;;;11.60;99.90;;;;;;5012311;28;20181;-68
2023/04/07 07:06:27;;;;;;;15.43;10.40;;;11.50;99.90;;;;;;5007216;28;20181;-68
2023/04/07 07:08:53;;;;;;;10.43;7.90;;;11.50;99.90;;;;;;5005651;28;20481;-68
2023/04/07 07:11:19;;;;;;;9.83;7.70;;;11.60;99.90;;;;;;5011320;28;20209;-68
2023/04/07 07:13:45;;;;;;;11.53;8.00;;;11.60;99.90;;;;;;5009201;28;20177;-68
2023/04/07 07:16:14;;;;;;;10.50;8.60;;;11.30;99.90;;;;;;5019590;28;20440;-68
2023/04/07 07:18:39;;;;;;;7.53;6.80;;;11.40;99.90;;;;;;5013713;28;20667;-67
2023/04/07 07:21:05;;;;;;;8.73;7.57;;;11.70;99.90;;;;;;5008215;28;20463;-67
2023/04/07 07:23:31;;;;;;;11.00;6.60;;;11.80;99.90;;;;;;5010834;28;20181;-68
2023/04/07 07:25:56;;;;;;;8.07;7.27;;;12.00;99.90;;;;;;5014153;28;20275;-68
2023/04/07 07:28:22;;;;;;;7.43;6.70;;;12.00;99.90;;;;;;5016564;28;20570;-67
2023/04/07 07:30:48;;;;;;;6.77;6.13;;;12.20;99.90;;;;;;5009034;28;20207;-67
2023/04/07 07:33:14;;;;;;;8.70;7.80;;;12.30;99.90;;;;;;5019299;28;20451;-68
2023/04/07 07:35:39;;;;;;;9.80;6.90;;;12.40;99.90;;;;;;5015806;28;20180;-68
2023/04/07 07:38:05;;;;;;;9.90;7.70;;;12.40;99.90;;;;;;5014224;28;20192;-67
2023/04/07 07:40:31;;;;;;;9.77;8.80;;;12.30;99.90;;;;;;5009844;28;20205;-67
2023/04/07 07:42:57;;;;;;;8.97;7.27;;;12.30;99.90;;;;;;5014067;28;20200;-68
2023/04/07 07:45:23;;;;;;;8.90;8.00;;;12.30;99.90;;;;;;5015175;28;20458;-68
2023/04/07 07:47:48;;;;;;;9.83;8.07;;;12.30;99.90;;;;;;5016882;28;20238;-68
2023/04/07 07:50:14;;;;;;;9.13;7.93;;;12.40;99.90;;;;;;5019535;28;20208;-67
2023/04/07 07:52:40;;;;;;;8.10;6.77;;;12.30;99.90;;;;;;5013311;28;20199;-68
2023/04/07 07:55:06;;;;;;;8.17;7.13;;;12.30;99.90;;;;;;5012102;28;20199;-68
2023/04/07 07:57:32;;;;;;;8.00;7.17;;;12.30;99.90;;;;;;5011435;28;20435;-68
2023/04/07 07:59:57;;;;;;;9.60;7.40;;;12.30;99.90;;;;;;5009726;28;20948;-66
2023/04/07 08:02:28;;;;;;;10.93;7.07;;;12.30;99.90;;;;;;5012056;28;20243;-67
2023/04/07 08:04:54;;;;;;;7.30;6.60;;;12.20;99.90;;;;;;5017974;28;20195;-67
2023/04/07 08:07:20;;;;;;;8.43;7.63;;;12.20;99.90;;;;;;5019029;28;20443;-68
2023/04/07 08:09:46;;;;;;;7.40;6.70;;;12.10;99.90;;;;;;5015661;28;20189;-68
2023/04/07 08:12:11;;;;;;;9.57;8.47;;;12.30;99.90;;;;;;5018796;28;20909;-68
2023/04/07 08:14:37;;;;;;;7.60;6.30;;;12.30;99.90;;;;;;5015124;28;20215;-68
2023/04/07 08:17:03;;;;;;;10.90;8.00;;;12.40;99.90;;;;;;5023650;28;20211;-68
2023/04/07 08:19:28;;;;;;;10.57;6.87;;;12.40;99.90;;;;;;5011615;28;20180;-68
2023/04/07 08:21:54;;;;;;;7.80;6.80;;;12.40;99.90;;;;;;5017430;28;20815;-68
2023/04/07 08:24:20;;;;;;;7.90;7.00;;;12.40;99.90;;;;;;5019780;28;20189;-68
2023/04/07 08:26:45;;;;;;;9.00;8.00;;;12.50;99.90;;;;;;5015492;28;20681;-68
2023/04/07 08:29:11;;;;;;;8.37;7.57;;;12.60;99.90;;;;;;5008297;28;20181;-69
2023/04/07 08:31:36;;;;;;;9.10;7.93;;;12.60;99.90;;;;;;5015455;28;20659;-69
2023/04/07 08:34:02;;;;;;;9.03;6.50;;;12.50;99.90;;;;;;5009964;28;20184;-67
2023/04/07 08:36:28;;;;;;;13.07;7.50;;;12.40;99.90;;;;;;5014306;28;20195;-66
2023/04/07 08:38:54;;;;;;;7.80;7.00;;;12.50;99.90;;;;;;5014216;28;20188;-69
2023/04/07 08:41:29;;;;;;;8.73;6.80;;;12.60;99.90;;;;;;5007823;28;20489;-68
2023/04/07 08:43:56;;;;;;;8.47;6.67;;;12.70;99.90;;;;;;5008550;28;20189;-69
2023/04/07 08:46:24;;;;;;;9.50;7.43;;;12.60;99.90;;;;;;5003361;28;20539;-70
2023/04/07 08:48:51;;;;;;;7.70;6.63;;;12.80;99.90;;;;;;5007193;28;20444;-68
2023/04/07 08:51:33;;;;;;;7.90;7.10;;;12.90;99.90;;;;;;5009866;28;20458;-68
2023/04/07 08:54:10;;;;;;;8.40;6.00;;;13.10;99.90;;;;;;5011852;28;20450;-68
2023/04/07 08:56:40;;;;;;;8.43;6.57;;;13.40;99.90;;;;;;5010827;28;20541;-67
2023/04/07 08:59:11;;;;;;;10.70;8.00;;;13.60;99.90;;;;;;5009022;28;20454;-67
2023/04/07 09:01:37;;;;;;;9.00;6.77;;;13.80;99.90;;;;;;5004455;28;20479;-67
2023/04/07 09:04:04;;;;;;;11.33;7.30;;;13.80;99.90;;;;;;4998459;28;20470;-67
2023/04/07 09:06:30;;;;;;;8.03;6.87;;;13.60;99.90;;;;;;5005539;28;20491;-67
2023/04/07 09:08:57;;;;;;;9.30;6.00;;;13.30;99.90;;;;;;5013490;28;20439;-67
2023/04/07 09:11:23;;;;;;;6.40;5.63;;;13.50;99.90;;;;;;5005833;28;20561;-67
2023/04/07 09:13:50;;;;;;;8.53;7.30;;;13.60;99.90;;;;;;5006651;28;20471;-67
2023/04/07 09:16:15;;;;;;;9.17;5.83;;;13.60;99.90;;;;;;5005241;28;20443;-67
2023/04/07 09:18:41;;;;;;;9.87;6.77;;;13.60;99.90;;;;;;5015542;28;20990;-67
2023/04/07 09:21:07;;;;;;;10.70;6.10;;;13.50;99.90;;;;;;5009555;28;20229;-68
2023/04/07 09:23:35;;;;;;;6.40;5.77;;;13.30;99.90;;;;;;5013950;28;20917;-68
2023/04/07 09:26:21;;;;;;;8.30;5.47;;;13.40;99.90;;;;;;5012222;28;20181;-68
2023/04/07 09:28:54;;;;;;;6.97;5.77;;;13.50;99.90;;;;;;5004089;28;20458;-68
2023/04/07 09:31:20;;;;;;;10.20;6.67;;;13.60;99.90;;;;;;5008362;28;20464;-70
2023/04/07 09:33:48;;;;;;;9.10;6.57;;;13.70;99.90;;;;;;5012120;28;20455;-68
2023/04/07 09:36:13;;;;;;;8.30;5.90;;;13.90;99.90;;;;;;5013561;28;20439;-68
2023/04/07 09:38:40;;;;;;;9.67;6.57;;;13.90;99.90;;;;;;5013770;28;20829;-67
2023/04/07 09:41:09;;;;;;;7.97;4.90;;;14.10;99.90;;;;;;5012007;28;20224;-67
2023/04/07 09:43:40;;;;;;;8.23;6.73;;;14.10;99.90;;;;;;4994576;28;21274;-68
2023/04/07 09:46:14;;;;;;;8.23;6.00;;;14.20;99.90;;;;;;5002797;28;20475;-69
2023/04/07 09:48:42;;;;;;;8.40;5.07;;;14.30;99.90;;;;;;5002829;28;20435;-68
2023/04/07 09:51:13;;;;;;;9.97;5.20;;;14.50;99.90;;;;;;5001619;28;20455;-68
2023/04/07 09:53:50;;;;;;;7.07;5.43;;;14.50;99.90;;;;;;5005821;28;20451;-67
2023/04/07 09:56:17;;;;;;;7.97;5.33;;;14.60;99.90;;;;;;5000765;28;20868;-69
2023/04/07 09:58:45;;;;;;;6.40;4.70;;;14.70;99.90;;;;;;5006504;28;20462;-68
2023/04/07 10:01:12;;;;;;;7.13;4.90;;;14.90;99.90;;;;;;5006030;28;20474;-68
2023/04/07 10:03:38;;;;;;;7.57;4.63;;;14.90;99.90;;;;;;5009084;28;20444;-68
2023/04/07 10:06:05;;;;;;;6.93;5.20;;;14.80;99.90;;;;;;5008695;28;20436;-69
2023/04/07 10:08:33;;;;;;;6.83;4.73;;;15.00;99.90;;;;;;5004351;28;20450;-68
2023/04/07 10:11:02;;;;;;;8.80;5.37;;;14.80;99.90;;;;;;5013294;28;20469;-67
2023/04/07 10:13:32;;;;;;;8.00;4.70;;;14.90;99.90;;;;;;5002343;28;21037;-67
2023/04/07 10:15:58;;;;;;;7.57;4.60;;;15.00;99.90;;;;;;5010609;28;20967;-68
2023/04/07 10:18:31;;;;;;;10.87;4.20;;;15.10;99.90;;;;;;5009282;28;20524;-67
2023/04/07 10:21:01;;;;;;;7.90;5.50;;;15.10;99.90;;;;;;5011404;28;20795;-67
2023/04/07 10:23:45;;;;;;;7.90;4.50;;;15.10;99.90;;;;;;5008465;28;20447;-67
2023/04/07 10:26:18;;;;;;;6.60;4.70;;;15.20;99.90;;;;;;5010781;28;20435;-69
2023/04/07 10:28:48;;;;;;;6.40;5.30;;;15.30;99.90;;;;;;5005077;28;20495;-69
2023/04/07 10:31:13;;;;;;;6.43;4.70;;;15.30;99.90;;;;;;5006162;28;21356;-69
2023/04/07 10:33:49;;;;;;;7.40;4.10;;;15.30;99.90;;;;;;5012112;28;20434;-69
2023/04/07 10:36:17;;;;;;;10.87;4.80;;;15.20;99.90;;;;;;5013717;28;20523;-69
2023/04/07 10:39:05;;;;;;;7.20;5.30;;;15.30;99.90;;;;;;5012830;28;20446;-69
2023/04/07 10:41:39;;;;;;;8.10;4.83;;;15.30;99.90;;;;;;5011449;28;21022;-69
2023/04/07 10:44:09;;;;;;;10.67;5.23;;;15.20;99.90;;;;;;5004892;28;20647;-69
2023/04/07 10:46:44;;;;;;;7.03;5.07;;;15.20;99.90;;;;;;5005793;28;20470;-69
2023/04/07 10:49:10;;;;;;;5.77;5.03;;;15.20;99.90;;;;;;5011949;28;20492;-69
2023/04/07 10:51:36;;;;;;;7.40;5.13;;;15.00;99.90;;;;;;5013805;28;20978;-69
2023/04/07 10:54:19;;;;;;;7.23;5.50;;;14.90;99.90;;;;;;5006792;28;20438;-68
2023/04/07 10:57:09;;;;;;;10.30;4.70;;;15.00;99.90;;;;;;5010553;28;20948;-69
2023/04/07 10:59:37;;;;;;;6.17;5.00;;;15.00;99.90;;;;;;5008194;28;20505;-69
2023/04/07 11:02:11;;;;;;;6.50;5.30;;;15.10;99.90;;;;;;5006784;28;20470;-69
2023/04/07 11:04:44;;;;;;;6.13;3.87;;;15.10;99.90;;;;;;5012893;28;20485;-69
2023/04/07 11:07:12;;;;;;;3.60;2.90;;;15.20;99.90;;;;;;5010948;28;20810;-69
2023/04/07 11:09:38;;;;;;;4.10;2.93;;;15.30;99.90;;;;;;5009168;28;20526;-69
2023/04/07 11:12:05;;;;;;;5.33;2.60;;;15.40;99.90;;;;;;5006710;28;20530;-68
2023/04/07 11:14:32;;;;;;;4.53;2.47;;;15.30;99.90;;;;;;5013945;28;20431;-69
2023/04/07 11:17:02;;;;;;;6.00;3.30;;;15.50;99.90;;;;;;5007236;28;20975;-69
2023/04/07 11:19:28;;;;;;;7.40;3.10;;;15.80;99.90;;;;;;5010787;28;20450;-69
2023/04/07 11:22:16;;;;;;;4.37;2.60;;;15.90;99.90;;;;;;5008382;28;20486;-69
2023/04/07 11:24:42;;;;;;;4.80;2.80;;;16.20;99.90;;;;;;5009255;28;20435;-69
2023/04/07 11:27:15;;;;;;;5.43;3.00;;;16.30;99.60;;;;;;5009561;28;20795;-68
2023/04/07 11:29:41;;;;;;;4.40;3.00;;;16.20;97.60;;;;;;5011316;28;21433;-69
2023/04/07 11:32:06;;;;;;;10.70;6.03;;;15.80;96.40;;;;;;5009692;28;21064;-69
2023/04/07 11:34:34;;;;;;;4.50;3.27;;;15.70;97.80;;;;;;5003688;28;20438;-69
2023/04/07 11:37:23;;;;;;;5.43;4.30;;;15.70;98.50;;;;;;5012920;28;20232;-68
2023/04/07 11:39:56;;;;;;;6.07;3.53;;;16.00;99.30;;;;;;5007986;28;20467;-69
2023/04/07 11:42:36;;;;;;;5.23;3.20;;;16.20;99.90;;;;;;5027064;28;20546;-69
2023/04/07 11:45:02;;;;;;;6.17;3.67;;;16.20;99.90;;;;;;5013186;28;20441;-69
2023/04/07 11:47:39;;;;;;;6.17;3.70;;;16.20;99.70;;;;;;5006998;28;20436;-68
2023/04/07 11:50:05;;;;;;;7.40;4.20;;;16.30;99.40;;;;;;5013289;28;20841;-68
2023/04/07 11:52:44;;;;;;;17.57;9.93;;;16.60;99.90;;;;;;5007124;28;20494;-69
2023/04/07 11:55:21;;;;;;;5.43;3.30;;;16.80;99.90;;;;;;5008446;28;20432;-71
2023/04/07 11:57:47;;;;;;;6.03;4.30;;;16.80;97.60;;;;;;5011855;28;20952;-68
2023/04/07 12:00:14;;;;;;;6.27;3.90;;;17.40;99.10;;;;;;5008605;28;20470;-69
2023/04/07 12:02:40;;;;;;;4.83;3.80;;;18.00;98.80;;;;;;5008703;28;20475;-68
2023/04/07 12:05:08;;;;;;;12.43;9.40;;;18.00;95.70;;;;;;5009209;28;20443;-69
2023/04/07 12:07:39;;;;;;;7.43;3.53;;;17.80;96.30;;;;;;5013056;28;21100;-69
2023/04/07 12:10:21;;;;;;;7.13;3.93;;;18.30;96.30;;;;;;5011173;28;20463;-69
2023/04/07 12:12:46;;;;;;;5.13;3.10;;;19.60;95.30;;;;;;5026454;28;20444;-69
2023/04/07 12:15:12;;;;;;;4.57;3.67;;;20.80;92.30;;;;;;5011709;28;20461;-69
2023/04/07 12:17:43;;;;;;;7.20;3.90;;;21.10;89.90;;;;;;5009576;28;20236;-69
2023/04/07 12:20:09;;;;;;;4.10;2.97;;;20.60;87.10;;;;;;5014320;28;20323;-70
2023/04/07 12:22:34;;;;;;;4.27;3.83;;;20.30;85.60;;;;;;5013543;28;20470;-69
2023/04/07 12:25:00;;;;;;;7.37;3.90;;;20.20;80.10;;;;;;5012751;28;21204;-68
2023/04/07 12:27:26;;;;;;;6.60;3.50;;;20.10;81.20;;;;;;5011570;28;20189;-69
2023/04/07 12:29:52;;;;;;;4.60;2.93;;;20.50;81.00;;;;;;5013005;28;20217;-68
2023/04/07 12:32:18;;;;;;;5.50;3.70;;;20.80;79.90;;;;;;5013190;28;20442;-69
2023/04/07 12:34:43;;;;;;;6.07;3.23;;;21.00;79.50;;;;;;5012706;28;20696;-69
2023/04/07 12:37:09;;;;;;;4.23;3.00;;;21.50;82.60;;;;;;5014519;28;20283;-69
2023/04/07 12:39:35;;;;;;;3.90;3.03;;;21.70;80.60;;;;;;5014531;28;20654;-69
2023/04/07 12:42:00;;;;;;;6.23;3.57;;;21.10;81.20;;;;;;5014126;28;20207;-70
2023/04/07 12:44:26;;;;;;;4.13;3.30;;;20.60;82.60;;;;;;5012499;28;20189;-69
2023/04/07 12:46:52;;;;;;;8.90;3.63;;;19.90;87.20;;;;;;5007399;28;20185;-69